RJTH(METAR)
10/16 17:00
RJTH 160800Z 06022KT 9999 RA FEW013 SCT020 BKNXXX 21/18 Q1020 RMK
A3013=
戻る
トップページへ戻る
IMOC Co,.Ltd.